Terminal Aerodrome Forecast
Issued by NWS

Home | Current Version | Previous Version | Graphics & Text | Print | Product List | Glossary On
Versions: 1 2 3 4 5 6 7 8 9 10 11 12 13 14 15 16 17 18 19 20
951
FTUS43 KGRB 181141
TAFMTW
TAF
KMTW 181141Z 1812/1912 33004KT P6SM SCT008 OVC035
      TEMPO 1812/1814 4SM -RA BR BKN008
     FM181400 35015G22KT P6SM SCT010 OVC022
      TEMPO 1814/1818 BKN010
     FM181800 33016G24KT P6SM SCT025 BKN028
     FM190100 31014KT P6SM BKN035=

USA.gov is the U.S. government's official web portal to all federal, state and local government web resources and services.